Time;durP1;ratioP1;P1;durP2;ratioP2;P2;SDS_P1;SDS_P2;PMS_P1;PMS_P2;Temp;Humidity;BMP_temperature;BMP_pressure;BME280_temperature;BME280_humidity;BME280_pressure;Samples;Min_cycle;Max_cycle;Signal;HPM_P1;HPM_P2
2023/09/29 00:02:05;;;;;;;;;;;;;;;20.90;27.38;98079.34;4960317;28;908;-76
2023/09/29 00:04:30;;;;;;;;;;;;;;;20.98;27.51;98086.41;4976354;28;964;-75
2023/09/29 00:06:55;;;;;;;;;;;;;;;20.91;27.56;98078.09;4937617;29;1052;-76
2023/09/29 00:09:22;;;;;;;;;;;;;;;20.96;27.32;98072.72;4954091;29;1903;-76
2023/09/29 00:11:48;;;;;;;;;;;;;;;21.01;27.19;98080.69;4937955;29;1248;-75
2023/09/29 00:14:13;;;;;;;;;;;;;;;20.92;27.56;98071.19;4953033;29;1013;-76
2023/09/29 00:16:39;;;;;;;;;;;;;;;20.88;27.29;98076.13;4971847;28;1377;-75
2023/09/29 00:19:05;;;;;;;;;;;;;;;21.07;27.00;98070.44;4959771;28;949;-75
2023/09/29 00:21:30;;;;;;;;;;;;;;;21.18;27.14;98073.00;4976066;28;1174;-76
2023/09/29 00:23:55;;;;;;;;;;;;;;;21.20;27.04;98070.56;4979799;28;1055;-76
2023/09/29 00:26:21;;;;;;;;;;;;;;;20.83;27.51;98076.66;4998792;28;1484;-76
2023/09/29 00:28:48;;;;;;;;;;;;;;;20.73;27.55;98070.81;4998768;28;1910;-75
2023/09/29 00:31:15;;;;;;;;;;;;;;;20.80;27.47;98065.00;5014979;28;963;-75
2023/09/29 00:33:41;;;;;;;;;;;;;;;21.01;27.24;98074.22;4998311;28;1177;-75
2023/09/29 00:36:08;;;;;;;;;;;;;;;20.90;27.24;98073.69;5014739;28;991;-75
2023/09/29 00:38:34;;;;;;;;;;;;;;;21.12;26.94;98063.47;5030145;28;1108;-76
2023/09/29 00:41:00;;;;;;;;;;;;;;;20.92;27.52;98059.88;5055903;28;1231;-76
2023/09/29 00:43:27;;;;;;;;;;;;;;;21.03;27.12;98060.44;5039091;28;1217;-75
2023/09/29 00:45:52;;;;;;;;;;;;;;;20.81;27.46;98055.28;5056465;28;1106;-76
2023/09/29 00:48:18;;;;;;;;;;;;;;;20.65;27.86;98057.28;5055540;28;989;-75
2023/09/29 00:50:45;;;;;;;;;;;;;;;20.94;27.43;98057.44;5055152;28;1898;-75
2023/09/29 00:53:14;;;;;;;;;;;;;;;20.73;27.74;98048.19;5055399;28;961;-75
2023/09/29 00:55:42;;;;;;;;;;;;;;;20.93;27.34;98050.16;5022571;28;1103;-75
2023/09/29 00:58:08;;;;;;;;;;;;;;;20.84;27.76;98064.94;5038977;28;1153;-76
2023/09/29 01:00:36;;;;;;;;;;;;;;;21.02;27.43;98064.50;5038643;28;1313;-75
2023/09/29 01:03:06;;;;;;;;;;;;;;;21.18;27.38;98056.03;5038632;28;1040;-76
2023/09/29 01:05:38;;;;;;;;;;;;;;;20.93;27.48;98058.66;5038868;28;1256;-76
2023/09/29 01:08:08;;;;;;;;;;;;;;;20.84;27.78;98066.97;5038725;28;1226;-75
2023/09/29 01:10:37;;;;;;;;;;;;;;;20.81;27.85;98060.94;5038639;28;1965;-76
2023/09/29 01:13:03;;;;;;;;;;;;;;;20.66;27.92;98056.81;5038467;28;1314;-75
2023/09/29 01:15:28;;;;;;;;;;;;;;;20.97;27.73;98056.53;5054896;28;1010;-76
2023/09/29 01:17:54;;;;;;;;;;;;;;;21.03;27.17;98055.56;5055042;28;1033;-75
2023/09/29 01:20:29;;;;;;;;;;;;;;;20.97;27.38;98057.34;5038836;28;1282;-76
2023/09/29 01:23:00;;;;;;;;;;;;;;;20.82;27.59;98053.22;5014593;28;1010;-75
2023/09/29 01:25:25;;;;;;;;;;;;;;;20.95;27.42;98047.72;5014433;28;1243;-76
2023/09/29 01:27:53;;;;;;;;;;;;;;;20.81;27.74;98055.28;5014585;28;1094;-76
2023/09/29 01:30:18;;;;;;;;;;;;;;;20.89;27.82;98055.13;5014183;28;1902;-75
2023/09/29 01:32:47;;;;;;;;;;;;;;;20.91;27.71;98061.13;5014294;28;1390;-75
2023/09/29 01:35:16;;;;;;;;;;;;;;;20.66;28.17;98054.00;4997929;28;1188;-75
2023/09/29 01:37:45;;;;;;;;;;;;;;;20.58;28.16;98052.56;4998183;28;1018;-76
2023/09/29 01:40:11;;;;;;;;;;;;;;;20.87;28.02;98061.19;4998038;28;1077;-76
2023/09/29 01:42:37;;;;;;;;;;;;;;;20.70;27.98;98054.72;4998053;28;1268;-75
2023/09/29 01:45:05;;;;;;;;;;;;;;;20.81;27.72;98060.94;5014172;28;1238;-76
2023/09/29 01:47:31;;;;;;;;;;;;;;;20.76;27.83;98057.81;5017941;28;1438;-76
2023/09/29 01:49:56;;;;;;;;;;;;;;;20.73;28.07;98055.88;5018071;28;1898;-76
2023/09/29 01:52:22;;;;;;;;;;;;;;;20.61;28.40;98060.16;5018201;28;1084;-75
2023/09/29 01:54:49;;;;;;;;;;;;;;;20.79;27.93;98063.41;5024115;28;1251;-75
2023/09/29 01:57:16;;;;;;;;;;;;;;;20.79;27.79;98073.94;5017926;28;1152;-76
2023/09/29 01:59:41;;;;;;;;;;;;;;;20.59;28.34;98071.13;5017520;28;1073;-76
2023/09/29 02:02:07;;;;;;;;;;;;;;;20.68;28.13;98068.50;4978528;28;1202;-76
2023/09/29 02:04:34;;;;;;;;;;;;;;;20.96;27.62;98071.91;4962361;28;1414;-75
2023/09/29 02:07:00;;;;;;;;;;;;;;;20.98;27.81;98075.09;4978727;28;1026;-76
2023/09/29 02:09:26;;;;;;;;;;;;;;;20.99;27.64;98071.84;4962135;28;1906;-75
2023/09/29 02:11:54;;;;;;;;;;;;;;;20.64;28.32;98073.44;4962294;28;953;-75
2023/09/29 02:14:20;;;;;;;;;;;;;;;20.62;28.13;98075.09;4962661;28;1136;-76
2023/09/29 02:16:48;;;;;;;;;;;;;;;20.57;28.34;98079.22;4962513;28;1266;-75
2023/09/29 02:19:16;;;;;;;;;;;;;;;20.83;28.22;98079.47;4962533;28;1210;-75
2023/09/29 02:21:45;;;;;;;;;;;;;;;20.81;28.11;98065.78;4939726;29;1212;-75
2023/09/29 02:24:11;;;;;;;;;;;;;;;20.76;28.07;98069.94;4901491;29;1007;-76
2023/09/29 02:26:38;;;;;;;;;;;;;;;20.72;28.22;98071.25;4870608;29;1139;-75
2023/09/29 02:29:10;;;;;;;;;;;;;;;20.74;27.96;98072.41;4886327;29;1975;-76
2023/09/29 02:31:36;;;;;;;;;;;;;;;20.79;28.28;98069.06;4886529;29;958;-76
2023/09/29 02:34:07;;;;;;;;;;;;;;;20.70;28.31;98071.69;4894720;29;1138;-76
2023/09/29 02:36:34;;;;;;;;;;;;;;;20.81;28.01;98080.72;4941496;29;1247;-76
2023/09/29 02:39:03;;;;;;;;;;;;;;;20.95;28.36;98081.66;4958785;29;1715;-76
2023/09/29 02:41:29;;;;;;;;;;;;;;;20.93;28.42;98078.44;4959098;29;938;-76
2023/09/29 02:43:55;;;;;;;;;;;;;;;20.81;28.76;98079.94;4958733;29;1277;-77
2023/09/29 02:46:20;;;;;;;;;;;;;;;20.97;28.80;98085.63;4958731;29;1279;-75
2023/09/29 02:48:48;;;;;;;;;;;;;;;21.15;28.80;98073.91;4958486;29;1906;-76
2023/09/29 02:51:16;;;;;;;;;;;;;;;20.84;29.51;98075.44;4958439;29;940;-76
2023/09/29 02:53:41;;;;;;;;;;;;;;;20.72;29.71;98083.34;4993807;28;1136;-75
2023/09/29 02:56:11;;;;;;;;;;;;;;;20.91;29.54;98087.38;5037161;28;1169;-76
2023/09/29 02:58:41;;;;;;;;;;;;;;;20.95;29.74;98084.47;5057187;28;896;-76
2023/09/29 03:01:12;;;;;;;;;;;;;;;20.95;29.87;98081.66;5057688;28;1157;-76
2023/09/29 03:03:43;;;;;;;;;;;;;;;21.19;29.55;98074.63;5057281;28;857;-76
2023/09/29 03:06:13;;;;;;;;;;;;;;;21.28;29.24;98083.28;5040958;28;1135;-76
2023/09/29 03:08:41;;;;;;;;;;;;;;;21.03;29.91;98088.72;5038470;28;1282;-75
2023/09/29 03:11:09;;;;;;;;;;;;;;;21.02;29.84;98098.44;5040401;28;1902;-75
2023/09/29 03:13:37;;;;;;;;;;;;;;;21.12;29.78;98090.97;5040349;28;1177;-75
2023/09/29 03:16:03;;;;;;;;;;;;;;;21.02;30.22;98098.44;5024114;28;1436;-75
2023/09/29 03:18:30;;;;;;;;;;;;;;;21.09;29.93;98109.63;5057164;28;1128;-76
2023/09/29 03:20:57;;;;;;;;;;;;;;;21.18;29.99;98112.63;5039484;28;1110;-76
2023/09/29 03:23:23;;;;;;;;;;;;;;;21.05;30.45;98123.03;5023913;28;1450;-76
2023/09/29 03:25:49;;;;;;;;;;;;;;;20.84;30.84;98115.03;5023901;28;1238;-76
2023/09/29 03:28:16;;;;;;;;;;;;;;;20.94;30.75;98116.84;5023791;28;1186;-76
2023/09/29 03:30:42;;;;;;;;;;;;;;;20.91;30.72;98114.88;5023749;28;1914;-76
2023/09/29 03:33:07;;;;;;;;;;;;;;;21.20;30.36;98112.22;5040223;28;1202;-76
2023/09/29 03:35:33;;;;;;;;;;;;;;;20.93;30.55;98112.38;4995961;28;1086;-75
2023/09/29 03:38:00;;;;;;;;;;;;;;;20.95;30.48;98109.94;4976869;28;1853;-75
2023/09/29 03:40:26;;;;;;;;;;;;;;;21.06;30.63;98110.50;4976520;28;1907;-76
2023/09/29 03:42:52;;;;;;;;;;;;;;;21.02;30.69;98104.91;4977247;28;1071;-76
2023/09/29 03:45:18;;;;;;;;;;;;;;;21.10;30.47;98099.91;4977003;28;919;-75
2023/09/29 03:47:46;;;;;;;;;;;;;;;21.13;30.58;98110.31;4976553;28;1005;-76
2023/09/29 03:50:12;;;;;;;;;;;;;;;21.03;30.71;98108.53;4976703;28;1920;-76
2023/09/29 03:52:38;;;;;;;;;;;;;;;21.11;30.36;98106.34;4977465;28;1608;-76
2023/09/29 03:55:04;;;;;;;;;;;;;;;21.01;30.65;98106.16;4995183;28;1050;-76
2023/09/29 03:57:31;;;;;;;;;;;;;;;21.23;30.29;98109.28;4979749;28;1248;-76
2023/09/29 03:59:57;;;;;;;;;;;;;;;21.20;30.41;98098.84;4996180;28;1029;-75
2023/09/29 04:02:22;;;;;;;;;;;;;;;20.94;30.69;98102.69;4996033;28;1007;-76
2023/09/29 04:04:48;;;;;;;;;;;;;;;21.00;30.70;98095.28;4995597;28;938;-77
2023/09/29 04:07:14;;;;;;;;;;;;;;;21.01;30.66;98103.31;5025363;28;1447;-76
2023/09/29 04:09:39;;;;;;;;;;;;;;;21.23;30.38;98100.78;5033860;28;1902;-76
2023/09/29 04:12:05;;;;;;;;;;;;;;;21.25;30.64;98098.31;5018639;28;1337;-76
2023/09/29 04:14:30;;;;;;;;;;;;;;;21.16;30.80;98103.78;5035223;28;1076;-76
2023/09/29 04:16:56;;;;;;;;;;;;;;;21.12;30.84;98103.06;5018243;28;1199;-75
2023/09/29 04:19:21;;;;;;;;;;;;;;;21.00;30.85;98106.59;5018596;28;1009;-76
2023/09/29 04:21:47;;;;;;;;;;;;;;;21.04;31.16;98101.66;5014495;28;1454;-77
2023/09/29 04:24:13;;;;;;;;;;;;;;;21.06;30.98;98099.16;5005869;28;1688;-76
2023/09/29 04:26:38;;;;;;;;;;;;;;;21.19;30.73;98102.91;4982570;28;983;-76
2023/09/29 04:29:05;;;;;;;;;;;;;;;21.30;30.76;98102.69;4998617;28;1894;-76
2023/09/29 04:31:30;;;;;;;;;;;;;;;21.37;30.35;98107.38;4982228;28;1123;-75
2023/09/29 04:33:56;;;;;;;;;;;;;;;21.13;30.79;98103.84;4982510;28;1400;-76
2023/09/29 04:36:21;;;;;;;;;;;;;;;21.07;31.25;98112.06;4998672;28;913;-76
2023/09/29 04:38:47;;;;;;;;;;;;;;;21.37;30.39;98108.19;5007880;28;1472;-75
2023/09/29 04:41:14;;;;;;;;;;;;;;;20.98;31.17;98107.00;4979365;28;1129;-76
2023/09/29 04:43:39;;;;;;;;;;;;;;;21.08;30.95;98113.66;4978974;28;1232;-75
2023/09/29 04:46:05;;;;;;;;;;;;;;;21.40;30.57;98109.31;4995273;28;972;-75
2023/09/29 04:48:30;;;;;;;;;;;;;;;21.38;30.62;98115.44;4995191;28;1093;-75
2023/09/29 04:50:56;;;;;;;;;;;;;;;21.25;30.77;98118.13;4995183;28;1923;-76
2023/09/29 04:53:21;;;;;;;;;;;;;;;21.10;31.27;98122.53;4997019;28;1441;-76
2023/09/29 04:55:47;;;;;;;;;;;;;;;21.07;31.19;98124.19;5033544;28;959;-75
2023/09/29 04:58:12;;;;;;;;;;;;;;;21.30;30.85;98119.69;5056069;28;1316;-76
2023/09/29 05:00:38;;;;;;;;;;;;;;;21.14;31.22;98122.44;5024587;28;1416;-75
2023/09/29 05:03:04;;;;;;;;;;;;;;;21.37;30.94;98130.03;5038937;28;965;-76
2023/09/29 05:05:29;;;;;;;;;;;;;;;21.31;30.76;98130.56;5056110;28;1380;-75
2023/09/29 05:07:56;;;;;;;;;;;;;;;21.53;30.43;98128.00;5021982;28;1257;-76
2023/09/29 05:10:21;;;;;;;;;;;;;;;21.37;30.91;98130.03;5056008;28;1973;-75
2023/09/29 05:12:47;;;;;;;;;;;;;;;21.44;30.82;98135.50;5038639;28;1104;-75
2023/09/29 05:15:12;;;;;;;;;;;;;;;21.41;30.78;98137.19;5054783;28;974;-76
2023/09/29 05:17:38;;;;;;;;;;;;;;;21.37;30.83;98147.00;5051839;28;1288;-75
2023/09/29 05:20:05;;;;;;;;;;;;;;;21.40;31.08;98141.28;5049234;28;1297;-76
2023/09/29 05:22:31;;;;;;;;;;;;;;;21.27;31.23;98143.16;5038316;28;1406;-75
2023/09/29 05:24:58;;;;;;;;;;;;;;;21.35;31.00;98138.97;5056039;28;1065;-76
2023/09/29 05:27:23;;;;;;;;;;;;;;;21.29;30.97;98141.47;5039213;28;1300;-76
2023/09/29 05:29:49;;;;;;;;;;;;;;;21.44;31.11;98141.16;5055881;28;1914;-76
2023/09/29 05:32:14;;;;;;;;;;;;;;;21.42;30.97;98138.00;5022809;28;879;-75
2023/09/29 05:34:40;;;;;;;;;;;;;;;21.26;31.01;98142.38;5053765;28;1463;-76
2023/09/29 05:37:06;;;;;;;;;;;;;;;21.30;31.21;98143.13;5039268;28;905;-76
2023/09/29 05:39:32;;;;;;;;;;;;;;;21.40;31.03;98141.28;5040416;28;986;-75
2023/09/29 05:41:57;;;;;;;;;;;;;;;21.53;30.82;98145.00;5038778;28;882;-76
2023/09/29 05:44:23;;;;;;;;;;;;;;;21.47;31.12;98145.97;5038953;28;1195;-76
2023/09/29 05:46:48;;;;;;;;;;;;;;;21.50;30.75;98145.06;5038608;28;955;-76
2023/09/29 05:49:14;;;;;;;;;;;;;;;21.46;31.09;98144.38;5039791;28;1991;-76
2023/09/29 05:51:39;;;;;;;;;;;;;;;21.37;31.25;98144.19;5051663;28;1371;-75
2023/09/29 05:54:05;;;;;;;;;;;;;;;21.71;30.49;98150.22;5013301;28;1566;-75
2023/09/29 05:56:31;;;;;;;;;;;;;;;21.42;30.96;98146.50;5022351;28;944;-76
2023/09/29 05:58:57;;;;;;;;;;;;;;;21.46;30.88;98155.69;5021448;28;1312;-76
2023/09/29 06:01:25;;;;;;;;;;;;;;;21.50;31.08;98151.56;4979164;28;1108;-76
2023/09/29 06:03:51;;;;;;;;;;;;;;;21.39;31.21;98150.19;4984248;28;1405;-76
2023/09/29 06:06:16;;;;;;;;;;;;;;;21.18;31.42;98162.75;4988695;28;1303;-76
2023/09/29 06:08:44;;;;;;;;;;;;;;;21.38;31.17;98154.25;5001595;28;873;-76
2023/09/29 06:11:10;;;;;;;;;;;;;;;21.24;31.50;98156.16;5017599;28;1906;-76
2023/09/29 06:13:35;;;;;;;;;;;;;;;21.39;31.17;98147.34;5001351;28;911;-76
2023/09/29 06:16:03;;;;;;;;;;;;;;;21.47;31.19;98146.75;5001358;28;943;-76
2023/09/29 06:18:29;;;;;;;;;;;;;;;21.39;31.15;98145.31;5020272;28;1216;-76
2023/09/29 06:20:55;;;;;;;;;;;;;;;21.77;30.57;98150.50;5018883;28;1615;-76
2023/09/29 06:23:20;;;;;;;;;;;;;;;21.48;31.17;98158.88;5017320;28;985;-75
2023/09/29 06:25:46;;;;;;;;;;;;;;;21.43;31.42;98163.03;5017420;28;1142;-75
2023/09/29 06:28:12;;;;;;;;;;;;;;;21.52;31.05;98160.38;5000826;28;1015;-76
2023/09/29 06:30:38;;;;;;;;;;;;;;;21.57;31.20;98159.06;5017030;28;1977;-76
2023/09/29 06:33:03;;;;;;;;;;;;;;;21.45;31.25;98157.72;5000718;28;1001;-76
2023/09/29 06:35:29;;;;;;;;;;;;;;;21.66;31.08;98156.44;5017393;28;986;-77
2023/09/29 06:37:55;;;;;;;;;;;;;;;21.50;31.22;98156.38;5019298;28;2043;-76
2023/09/29 06:40:22;;;;;;;;;;;;;;;21.70;30.91;98162.78;5020439;28;1256;-76
2023/09/29 06:42:48;;;;;;;;;;;;;;;21.65;31.01;98163.31;5032349;28;916;-76
2023/09/29 06:45:14;;;;;;;;;;;;;;;21.66;31.35;98156.44;5036945;28;1083;-75
2023/09/29 06:47:39;;;;;;;;;;;;;;;21.51;31.61;98164.47;5036559;28;1231;-75
2023/09/29 06:50:05;;;;;;;;;;;;;;;21.69;31.32;98166.06;5033306;28;1968;-76
2023/09/29 06:52:31;;;;;;;;;;;;;;;21.64;31.19;98166.59;5015932;28;1388;-76
2023/09/29 06:54:56;;;;;;;;;;;;;;;21.73;31.26;98164.75;5000413;28;1135;-76
2023/09/29 06:57:22;;;;;;;;;;;;;;;21.54;31.77;98163.56;5036358;28;947;-76
2023/09/29 06:59:48;;;;;;;;;;;;;;;21.87;31.18;98162.81;5036658;28;1279;-76
2023/09/29 07:02:13;;;;;;;;;;;;;;;21.70;31.45;98165.59;5020132;28;951;-77
2023/09/29 07:04:39;;;;;;;;;;;;;;;21.73;31.58;98159.06;5036353;28;997;-77
2023/09/29 07:07:04;;;;;;;;;;;;;;;22.02;31.22;98170.50;5015617;28;1453;-77
2023/09/29 07:09:30;;;;;;;;;;;;;;;21.84;31.38;98164.47;5022445;28;1975;-76
2023/09/29 07:11:55;;;;;;;;;;;;;;;21.66;32.01;98153.59;5036421;28;974;-75
2023/09/29 07:14:21;;;;;;;;;;;;;;;21.87;31.52;98163.59;5016021;28;1139;-75
2023/09/29 07:16:49;;;;;;;;;;;;;;;21.86;31.76;98161.97;4994975;28;1272;-76
2023/09/29 07:19:15;;;;;;;;;;;;;;;21.81;31.69;98171.84;4995198;28;1413;-76
2023/09/29 07:21:41;;;;;;;;;;;;;;;22.02;31.13;98164.00;4973635;28;1646;-76
2023/09/29 07:24:07;;;;;;;;;;;;;;;21.68;32.00;98170.13;4977472;28;1055;-75
2023/09/29 07:26:32;;;;;;;;;;;;;;;21.73;32.13;98164.75;4979368;28;1751;-75
2023/09/29 07:29:01;;;;;;;;;;;;;;;21.66;32.27;98170.59;4980634;28;1977;-76
2023/09/29 07:31:45;;;;;;;;;;;;;;;21.67;32.01;98172.16;4996830;28;991;-76
2023/09/29 07:34:10;;;;;;;;;;;;;;;21.73;31.77;98175.28;4998383;28;1376;-77
2023/09/29 07:36:36;;;;;;;;;;;;;;;21.92;31.73;98187.75;4996784;28;1315;-76
2023/09/29 07:39:01;;;;;;;;;;;;;;;21.78;32.03;98189.69;5011940;28;1747;-75
2023/09/29 07:41:27;;;;;;;;;;;;;;;21.86;31.74;98195.97;5035734;28;1253;-76
2023/09/29 07:43:52;;;;;;;;;;;;;;;21.77;32.12;98205.09;5035275;28;1031;-76
2023/09/29 07:46:18;;;;;;;;;;;;;;;21.84;31.76;98199.25;5019079;28;1239;-76
2023/09/29 07:48:44;;;;;;;;;;;;;;;21.67;32.22;98200.50;5002662;28;1163;-76
2023/09/29 07:51:09;;;;;;;;;;;;;;;21.69;32.25;98215.00;5018693;28;1910;-77
2023/09/29 07:53:34;;;;;;;;;;;;;;;21.73;31.86;98212.88;5013138;28;1492;-76
2023/09/29 07:56:00;;;;;;;;;;;;;;;21.71;32.09;98201.22;5020196;28;1457;-75
2023/09/29 07:58:25;;;;;;;;;;;;;;;21.72;31.94;98216.97;5037301;28;897;-76
2023/09/29 08:00:51;;;;;;;;;;;;;;;21.74;31.90;98216.50;5020180;28;1278;-76
2023/09/29 08:03:16;;;;;;;;;;;;;;;21.78;31.75;98201.03;5036957;28;1373;-76
2023/09/29 08:05:42;;;;;;;;;;;;;;;21.77;31.96;98210.78;5036606;28;964;-76
2023/09/29 08:08:07;;;;;;;;;;;;;;;21.88;31.80;98209.72;5035869;28;1347;-77
2023/09/29 08:10:33;;;;;;;;;;;;;;;22.10;31.32;98210.75;5019084;28;1914;-76
2023/09/29 08:12:58;;;;;;;;;;;;;;;21.78;31.77;98212.34;5035995;28;932;-76
2023/09/29 08:15:24;;;;;;;;;;;;;;;21.84;32.04;98209.78;5036046;28;944;-76
2023/09/29 08:17:50;;;;;;;;;;;;;;;21.75;32.03;98212.44;5050212;28;1345;-76
2023/09/29 08:20:17;;;;;;;;;;;;;;;21.96;31.89;98208.28;5039798;28;1041;-76
2023/09/29 08:22:43;;;;;;;;;;;;;;;21.84;31.94;98206.97;5056369;28;914;-76
2023/09/29 08:25:08;;;;;;;;;;;;;;;21.87;31.75;98199.63;5049820;28;1476;-76
2023/09/29 08:27:37;;;;;;;;;;;;;;;21.94;31.58;98207.94;5034835;28;1119;-75
2023/09/29 08:30:03;;;;;;;;;;;;;;;22.14;31.39;98208.69;5001831;28;1973;-76
2023/09/29 08:32:30;;;;;;;;;;;;;;;21.99;31.60;98215.91;5018362;28;989;-75
2023/09/29 08:34:55;;;;;;;;;;;;;;;22.06;31.47;98216.50;5018367;28;1130;-76
2023/09/29 08:37:22;;;;;;;;;;;;;;;22.04;31.33;98204.03;5017671;28;915;-76
2023/09/29 08:39:48;;;;;;;;;;;;;;;21.98;31.53;98211.50;5017559;28;1650;-76
2023/09/29 08:42:24;;;;;;;;;;;;;;;21.72;31.72;98214.13;5032881;28;1604;-76
2023/09/29 08:44:49;;;;;;;;;;;;;;;22.00;31.46;98220.34;5018061;28;1011;-76
2023/09/29 08:47:15;;;;;;;;;;;;;;;21.93;31.72;98217.69;5017865;28;1267;-75
2023/09/29 08:49:41;;;;;;;;;;;;;;;21.92;31.80;98210.44;5001425;28;1977;-75
2023/09/29 08:52:07;;;;;;;;;;;;;;;21.82;31.77;98213.06;5034313;28;1009;-75
2023/09/29 08:54:32;;;;;;;;;;;;;;;22.06;31.33;98205.19;5001533;28;1368;-75
2023/09/29 08:56:58;;;;;;;;;;;;;;;21.92;31.56;98199.09;5017026;28;1423;-76
2023/09/29 08:59:24;;;;;;;;;;;;;;;22.10;31.38;98202.25;5005016;28;937;-76
2023/09/29 09:01:54;;;;;;;;;;;;;;;22.00;31.73;98206.16;5014407;28;977;-75
2023/09/29 09:04:20;;;;;;;;;;;;;;;21.82;31.93;98193.25;4997949;28;979;-76
2023/09/29 09:06:47;;;;;;;;;;;;;;;21.65;32.44;98205.78;4997951;28;1464;-76
2023/09/29 09:09:13;;;;;;;;;;;;;;;21.87;32.21;98199.63;5014291;28;1980;-76
2023/09/29 09:11:44;;;;;;;;;;;;;;;21.83;32.07;98202.53;4996966;28;1333;-76
2023/09/29 09:14:10;;;;;;;;;;;;;;;22.02;31.81;98204.50;5014115;28;1007;-75
2023/09/29 09:16:40;;;;;;;;;;;;;;;22.36;31.21;98209.69;5014092;28;1259;-76
2023/09/29 09:19:12;;;;;;;;;;;;;;;22.09;31.62;98207.13;5014047;28;1045;-75
2023/09/29 09:21:37;;;;;;;;;;;;;;;22.01;31.80;98207.75;4979213;28;1547;-76
2023/09/29 09:24:03;;;;;;;;;;;;;;;22.06;31.63;98212.88;4957584;28;1487;-76
2023/09/29 09:26:29;;;;;;;;;;;;;;;21.92;31.89;98204.75;4959021;28;944;-76
2023/09/29 09:28:54;;;;;;;;;;;;;;;22.19;31.15;98202.47;4974417;28;1355;-75
2023/09/29 09:31:20;;;;;;;;;;;;;;;21.91;31.74;98208.81;4959006;28;1984;-76
2023/09/29 09:33:53;;;;;;;;;;;;;;;21.76;31.76;98208.34;4993617;28;987;-76
2023/09/29 09:36:19;;;;;;;;;;;;;;;21.85;31.47;98200.84;4997443;28;1337;-76
2023/09/29 09:38:47;;;;;;;;;;;;;;;21.91;31.47;98208.81;5013816;28;931;-77
2023/09/29 09:41:13;;;;;;;;;;;;;;;21.94;31.31;98210.78;4997498;28;1029;-75
2023/09/29 09:43:40;;;;;;;;;;;;;;;21.77;31.88;98210.78;5012928;28;1538;-76
2023/09/29 09:46:07;;;;;;;;;;;;;;;22.10;31.15;98210.75;5013056;28;1553;-75
2023/09/29 09:48:39;;;;;;;;;;;;;;;22.03;31.33;98213.78;4997307;28;1129;-77
2023/09/29 09:51:07;;;;;;;;;;;;;;;21.97;31.41;98210.69;5013455;28;2001;-76
2023/09/29 09:53:33;;;;;;;;;;;;;;;21.93;31.32;98212.00;4998061;28;1014;-76
2023/09/29 09:56:04;;;;;;;;;;;;;;;22.00;31.30;98214.66;4997504;28;951;-76
2023/09/29 09:58:29;;;;;;;;;;;;;;;21.96;31.47;98205.44;4995769;28;1502;-76
2023/09/29 10:00:55;;;;;;;;;;;;;;;21.82;31.36;98200.94;4995691;28;1618;-76
2023/09/29 10:03:21;;;;;;;;;;;;;;;21.67;31.55;98206.16;5016542;28;1477;-77
2023/09/29 10:05:52;;;;;;;;;;;;;;;21.85;31.48;98200.84;5033436;28;977;-76
2023/09/29 10:08:24;;;;;;;;;;;;;;;21.78;31.49;98206.69;5019953;28;1083;-75
2023/09/29 10:10:50;;;;;;;;;;;;;;;22.02;31.20;98212.19;5036483;28;1906;-76
2023/09/29 10:13:16;;;;;;;;;;;;;;;21.91;31.17;98205.97;5036334;28;1579;-76
2023/09/29 10:15:42;;;;;;;;;;;;;;;21.85;31.26;98209.34;5030124;28;1879;-75
2023/09/29 10:18:15;;;;;;;;;;;;;;;21.99;31.09;98204.56;5019919;28;1125;-76
2023/09/29 10:20:41;;;;;;;;;;;;;;;22.55;31.88;98201.53;5020383;28;975;-73
2023/09/29 10:23:07;;;;;;;;;;;;;;;22.84;33.21;98193.78;5038334;28;869;-76
2023/09/29 10:25:34;;;;;;;;;;;;;;;22.44;33.40;98192.53;5021450;28;1239;-76
2023/09/29 10:28:00;;;;;;;;;;;;;;;22.35;33.46;98198.81;5037596;28;1117;-76
2023/09/29 10:30:26;;;;;;;;;;;;;;;22.04;33.80;98193.50;5021091;28;1957;-75
2023/09/29 10:33:01;;;;;;;;;;;;;;;21.94;33.42;98190.94;4992949;28;1920;-75
2023/09/29 10:35:26;;;;;;;;;;;;;;;21.93;33.51;98190.16;4997109;28;954;-75
2023/09/29 10:37:54;;;;;;;;;;;;;;;21.95;33.10;98189.69;4997290;28;909;-75
2023/09/29 10:40:21;;;;;;;;;;;;;;;22.15;32.51;98184.75;4996884;28;1213;-74
2023/09/29 10:42:46;;;;;;;;;;;;;;;22.08;32.65;98190.59;4980590;28;995;-75
2023/09/29 10:45:13;;;;;;;;;;;;;;;21.98;32.46;98186.00;4996636;28;954;-75
2023/09/29 10:47:39;;;;;;;;;;;;;;;22.15;32.11;98189.63;4957153;28;1534;-75
2023/09/29 10:50:05;;;;;;;;;;;;;;;21.89;32.24;98188.63;4941535;28;1985;-75
2023/09/29 10:52:30;;;;;;;;;;;;;;;22.05;32.09;98185.78;4941963;29;1122;-74
2023/09/29 10:54:59;;;;;;;;;;;;;;;21.99;32.08;98181.91;4957961;28;950;-75
2023/09/29 10:57:25;;;;;;;;;;;;;;;22.03;32.03;98179.78;4942053;29;1244;-76
2023/09/29 10:59:52;;;;;;;;;;;;;;;22.31;31.43;98181.91;4957892;28;969;-76
2023/09/29 11:02:17;;;;;;;;;;;;;;;22.07;31.63;98171.97;4956988;28;1339;-75
2023/09/29 11:04:46;;;;;;;;;;;;;;;21.79;32.30;98179.97;4974978;28;1481;-75
2023/09/29 11:07:13;;;;;;;;;;;;;;;22.01;31.60;98173.75;4980430;28;1234;-75
2023/09/29 11:09:39;;;;;;;;;;;;;;;21.68;32.08;98170.13;4960643;28;1970;-75
2023/09/29 11:12:04;;;;;;;;;;;;;;;21.78;32.04;98175.53;4977110;28;902;-76
2023/09/29 11:14:36;;;;;;;;;;;;;;;21.88;31.66;98170.84;4993340;28;1266;-76
2023/09/29 11:17:02;;;;;;;;;;;;;;;21.77;31.84;98173.94;4967751;28;1153;-75
2023/09/29 11:19:30;;;;;;;;;;;;;;;21.88;31.77;98170.06;4991757;28;1401;-76
2023/09/29 11:21:58;;;;;;;;;;;;;;;21.74;31.77;98169.16;5014077;28;1331;-75
2023/09/29 11:24:24;;;;;;;;;;;;;;;21.91;31.78;98169.94;4983583;28;1089;-74
2023/09/29 11:26:51;;;;;;;;;;;;;;;21.59;32.51;98165.06;4999733;28;944;-75
2023/09/29 11:29:23;;;;;;;;;;;;;;;21.80;31.95;98156.06;5013028;28;1902;-75
2023/09/29 11:31:53;;;;;;;;;;;;;;;21.81;31.80;98154.84;4983249;28;1127;-75
2023/09/29 11:34:18;;;;;;;;;;;;;;;21.49;32.43;98155.59;4966291;28;1556;-74
2023/09/29 11:36:44;;;;;;;;;;;;;;;21.78;32.02;98161.38;5015924;28;946;-74
2023/09/29 11:39:10;;;;;;;;;;;;;;;21.91;31.83;98154.97;4999370;28;1122;-75
2023/09/29 11:41:36;;;;;;;;;;;;;;;22.04;31.61;98151.00;5035768;28;883;-75
2023/09/29 11:44:01;;;;;;;;;;;;;;;21.80;32.08;98153.22;5057681;28;1113;-76
2023/09/29 11:46:27;;;;;;;;;;;;;;;21.93;31.80;98150.50;5056314;28;1092;-75
2023/09/29 11:48:53;;;;;;;;;;;;;;;21.70;32.22;98142.94;5038753;28;1349;-75
2023/09/29 11:51:19;;;;;;;;;;;;;;;21.83;31.59;98146.69;5039212;28;1966;-75
2023/09/29 11:53:44;;;;;;;;;;;;;;;21.62;32.30;98147.22;5057443;28;1075;-75
2023/09/29 11:56:10;;;;;;;;;;;;;;;21.69;31.81;98152.69;5039653;28;1249;-75
2023/09/29 11:58:37;;;;;;;;;;;;;;;22.04;31.47;98155.88;5039426;28;1303;-75
2023/09/29 12:01:02;;;;;;;;;;;;;;;21.90;31.78;98157.03;5023149;28;1192;-76
2023/09/29 12:03:28;;;;;;;;;;;;;;;21.84;31.74;98151.09;5055502;28;1065;-76
2023/09/29 12:05:54;;;;;;;;;;;;;;;21.98;31.28;98152.00;5037518;28;1452;-76
2023/09/29 12:08:19;;;;;;;;;;;;;;;21.96;31.49;98148.78;5036958;28;976;-75
2023/09/29 12:10:45;;;;;;;;;;;;;;;22.03;31.24;98142.97;5035669;28;1914;-75
2023/09/29 12:13:13;;;;;;;;;;;;;;;21.88;31.58;98142.53;5019347;28;1196;-75
2023/09/29 12:15:40;;;;;;;;;;;;;;;21.89;31.52;98140.47;5019370;28;1124;-75
2023/09/29 12:18:06;;;;;;;;;;;;;;;21.89;31.50;98134.81;5020091;28;1030;-75
2023/09/29 12:20:31;;;;;;;;;;;;;;;22.15;31.16;98133.75;5033757;28;1492;-76
2023/09/29 12:23:00;;;;;;;;;;;;;;;21.89;31.25;98131.97;5035436;28;1076;-74
2023/09/29 12:25:26;;;;;;;;;;;;;;;21.75;31.59;98142.41;5019361;28;914;-75
2023/09/29 12:27:51;;;;;;;;;;;;;;;21.77;31.74;98137.13;5018939;28;1006;-74
2023/09/29 12:30:18;;;;;;;;;;;;;;;21.67;31.66;98134.56;5033834;28;1910;-76
2023/09/29 12:32:44;;;;;;;;;;;;;;;21.68;31.52;98122.78;5017920;28;1023;-75
2023/09/29 12:35:12;;;;;;;;;;;;;;;21.90;31.12;98127.91;5008965;28;1532;-75
2023/09/29 12:37:38;;;;;;;;;;;;;;;21.91;31.37;98127.44;4996157;28;1364;-75
2023/09/29 12:40:05;;;;;;;;;;;;;;;21.90;31.36;98127.91;5001413;28;919;-75
2023/09/29 12:42:31;;;;;;;;;;;;;;;22.17;30.65;98131.25;5001785;28;1127;-75
2023/09/29 12:44:57;;;;;;;;;;;;;;;21.84;31.39;98119.16;4997889;28;1239;-75
2023/09/29 12:47:22;;;;;;;;;;;;;;;21.75;31.60;98122.59;4997908;28;1059;-75
2023/09/29 12:49:48;;;;;;;;;;;;;;;21.90;31.20;98113.75;5014162;28;1985;-74
2023/09/29 12:52:15;;;;;;;;;;;;;;;21.87;31.12;98117.47;4993080;28;1437;-75
2023/09/29 12:54:41;;;;;;;;;;;;;;;21.73;31.57;98119.41;4994453;28;990;-75
2023/09/29 12:57:07;;;;;;;;;;;;;;;21.75;31.51;98116.13;4975022;28;1003;-75